createdAt,value
2022-10-06T00:00:31.516Z,39.96
2022-10-06T00:02:57.925Z,39.55
2022-10-06T00:05:24.451Z,39.82
2022-10-06T00:07:50.843Z,39.87
2022-10-06T00:10:17.727Z,40.02
2022-10-06T00:12:47.624Z,39.98
2022-10-06T00:15:16.607Z,39.67
2022-10-06T00:17:42.993Z,39.39
2022-10-06T00:20:10.817Z,40.02
2022-10-06T00:22:42.542Z,39.71
2022-10-06T00:25:11.931Z,39.53
2022-10-06T00:27:42.749Z,39.62
2022-10-06T00:30:12.116Z,39.63
2022-10-06T00:32:39.436Z,39.67
2022-10-06T00:35:07.827Z,39.55
2022-10-06T00:37:38.073Z,39.77
2022-10-06T00:40:09.637Z,39.70
2022-10-06T00:42:51.135Z,39.59
2022-10-06T00:45:20.815Z,39.68
2022-10-06T00:47:47.421Z,39.81
2022-10-06T00:50:14.994Z,39.73
2022-10-06T00:52:41.876Z,39.63
2022-10-06T00:55:11.179Z,39.54
2022-10-06T00:57:39.424Z,39.59
2022-10-06T01:00:07.071Z,39.32
2022-10-06T01:02:42.565Z,39.67
2022-10-06T01:05:15.890Z,39.79
2022-10-06T01:07:42.279Z,39.50
2022-10-06T01:10:09.276Z,39.73
2022-10-06T01:12:35.848Z,39.75
2022-10-06T01:15:02.422Z,39.52
2022-10-06T01:17:44.057Z,39.35
2022-10-06T01:20:12.612Z,39.50
2022-10-06T01:22:43.468Z,39.28
2022-10-06T01:25:13.264Z,39.35
2022-10-06T01:27:42.768Z,39.44
2022-10-06T01:30:13.430Z,39.43
2022-10-06T01:32:40.179Z,39.36
2022-10-06T01:35:08.060Z,39.68
2022-10-06T01:37:34.728Z,39.20
2022-10-06T01:40:01.203Z,39.25
2022-10-06T01:42:31.701Z,39.39
2022-10-06T01:44:58.186Z,38.96
2022-10-06T01:47:24.562Z,39.05
2022-10-06T01:49:51.004Z,39.10
2022-10-06T01:52:17.882Z,39.04
2022-10-06T01:54:44.243Z,39.38
2022-10-06T01:57:10.716Z,39.19
2022-10-06T01:59:37.343Z,39.25
2022-10-06T02:02:04.702Z,39.03
2022-10-06T02:04:31.231Z,39.22
2022-10-06T02:06:57.658Z,39.04
2022-10-06T02:09:24.090Z,39.16
2022-10-06T02:11:50.743Z,38.80
2022-10-06T02:14:18.069Z,38.99
2022-10-06T02:16:47.806Z,38.74
2022-10-06T02:19:14.195Z,39.15
2022-10-06T02:21:40.575Z,39.13
2022-10-06T02:24:06.979Z,39.03
2022-10-06T02:26:33.595Z,38.92
2022-10-06T02:28:59.983Z,38.79
2022-10-06T02:31:26.606Z,39.14
2022-10-06T02:33:53.056Z,39.13
2022-10-06T02:36:19.499Z,38.82
2022-10-06T02:38:45.911Z,38.89
2022-10-06T02:41:12.294Z,39.33
2022-10-06T02:43:38.743Z,38.93
2022-10-06T02:46:08.142Z,39.21
2022-10-06T02:48:35.145Z,38.84
2022-10-06T02:51:09.495Z,38.82
2022-10-06T02:53:36.552Z,38.88
2022-10-06T02:56:12.271Z,38.69
2022-10-06T02:58:39.912Z,38.87
2022-10-06T03:01:21.280Z,38.55
2022-10-06T03:03:48.117Z,38.77
2022-10-06T03:06:26.751Z,38.61
2022-10-06T03:08:54.252Z,38.87
2022-10-06T03:11:23.062Z,38.70
2022-10-06T03:13:51.410Z,38.75
2022-10-06T03:16:26.644Z,38.80
2022-10-06T03:18:54.943Z,38.58
2022-10-06T03:21:23.810Z,38.69
2022-10-06T03:23:51.833Z,38.92
2022-10-06T03:26:20.582Z,38.80
2022-10-06T03:28:47.212Z,38.52
2022-10-06T03:31:14.986Z,38.71
2022-10-06T03:33:41.718Z,38.71
2022-10-06T03:36:11.898Z,38.69
2022-10-06T03:38:38.691Z,38.85
2022-10-06T03:41:08.158Z,38.86
2022-10-06T03:43:35.141Z,38.81
2022-10-06T03:46:02.762Z,38.75
2022-10-06T03:48:31.473Z,38.93
2022-10-06T03:51:03.091Z,38.84
2022-10-06T03:53:30.286Z,38.59
2022-10-06T03:56:13.233Z,38.59
2022-10-06T03:58:41.998Z,38.67
2022-10-06T04:01:44.621Z,38.63
2022-10-06T04:04:12.155Z,38.76
2022-10-06T04:06:42.174Z,38.73
2022-10-06T04:09:14.909Z,38.92
2022-10-06T04:11:43.927Z,38.93
2022-10-06T04:14:13.743Z,38.70
2022-10-06T04:16:43.303Z,38.80
2022-10-06T04:19:12.523Z,38.80
2022-10-06T04:21:41.846Z,39.19
2022-10-06T04:24:10.638Z,39.09
2022-10-06T04:26:40.115Z,39.08
2022-10-06T04:29:06.806Z,39.42
2022-10-06T04:31:39.071Z,38.96
2022-10-06T04:34:06.859Z,39.07
2022-10-06T04:36:35.402Z,39.16
2022-10-06T04:39:04.238Z,39.12
2022-10-06T04:41:33.146Z,39.11
2022-10-06T04:44:00.784Z,39.45
2022-10-06T04:46:42.777Z,39.15
2022-10-06T04:49:18.537Z,39.04
2022-10-06T04:51:47.216Z,39.29
2022-10-06T04:54:14.263Z,39.19
2022-10-06T04:56:40.678Z,39.13
2022-10-06T04:59:07.055Z,39.09
2022-10-06T05:01:36.384Z,39.19
2022-10-06T05:04:04.215Z,38.95
2022-10-06T05:06:33.764Z,38.88
2022-10-06T05:09:03.662Z,39.15
2022-10-06T05:11:31.765Z,39.21
2022-10-06T05:13:58.958Z,39.28
2022-10-06T05:16:27.524Z,39.32
2022-10-06T05:18:54.125Z,38.96
2022-10-06T05:21:40.175Z,39.50
2022-10-06T05:24:07.046Z,39.29
2022-10-06T05:26:35.004Z,39.63
2022-10-06T05:29:02.500Z,39.63
2022-10-06T05:31:31.771Z,39.43
2022-10-06T05:33:59.577Z,39.57
2022-10-06T05:36:29.616Z,39.50
2022-10-06T05:38:57.343Z,39.50
2022-10-06T05:41:28.848Z,39.22
2022-10-06T05:43:55.279Z,39.32
2022-10-06T05:46:25.054Z,39.42
2022-10-06T05:48:56.693Z,39.41
2022-10-06T05:51:30.379Z,39.20
2022-10-06T05:53:58.175Z,39.33
2022-10-06T05:56:29.286Z,39.68
2022-10-06T05:58:57.513Z,39.55
2022-10-06T06:01:32.519Z,39.20
2022-10-06T06:04:04.410Z,39.27
2022-10-06T06:06:42.422Z,39.09
2022-10-06T06:09:17.312Z,38.97
2022-10-06T06:11:46.835Z,38.85
2022-10-06T06:14:16.096Z,39.00
2022-10-06T06:16:44.060Z,39.05
2022-10-06T06:19:12.705Z,38.92
2022-10-06T06:21:39.661Z,38.92
2022-10-06T06:24:06.555Z,39.06
2022-10-06T06:26:36.695Z,38.74
2022-10-06T06:29:04.313Z,38.71
2022-10-06T06:31:36.067Z,38.75
2022-10-06T06:34:04.789Z,38.88
2022-10-06T06:36:43.387Z,38.67
2022-10-06T06:39:11.490Z,39.12
2022-10-06T06:41:45.038Z,38.80
2022-10-06T06:44:12.096Z,38.92
2022-10-06T06:46:39.795Z,38.98
2022-10-06T06:49:06.887Z,38.94
2022-10-06T06:51:40.272Z,39.01
2022-10-06T06:54:08.254Z,38.92
2022-10-06T06:56:38.560Z,38.72
2022-10-06T06:59:11.743Z,38.99
2022-10-06T07:01:44.343Z,38.74
2022-10-06T07:04:12.811Z,38.93
2022-10-06T07:06:40.642Z,39.10
2022-10-06T07:09:08.002Z,38.49
2022-10-06T07:11:40.931Z,38.39
2022-10-06T07:14:10.050Z,38.77
2022-10-06T07:16:55.170Z,38.95
2022-10-06T07:19:57.354Z,38.90
2022-10-06T07:22:46.934Z,38.94
2022-10-06T07:25:26.468Z,38.45
2022-10-06T07:27:53.667Z,38.69
2022-10-06T07:30:26.385Z,38.44
2022-10-06T07:32:54.785Z,38.63
2022-10-06T07:35:22.613Z,38.35
2022-10-06T07:37:50.406Z,38.42
2022-10-06T07:40:17.522Z,38.72
2022-10-06T07:42:51.896Z,38.58
2022-10-06T07:45:37.153Z,38.57
2022-10-06T07:48:05.527Z,38.83
2022-10-06T07:50:32.639Z,38.84
2022-10-06T07:53:04.951Z,38.30
2022-10-06T07:55:31.902Z,38.43
2022-10-06T07:57:58.287Z,38.68
2022-10-06T08:00:26.611Z,38.47
2022-10-06T08:02:54.821Z,38.55
2022-10-06T08:05:21.772Z,38.97
2022-10-06T08:07:48.390Z,38.54
2022-10-06T08:10:14.986Z,38.36
2022-10-06T08:12:41.584Z,38.53
2022-10-06T08:15:11.273Z,38.08
2022-10-06T08:17:38.513Z,38.28
2022-10-06T08:20:07.400Z,38.30
2022-10-06T08:22:33.922Z,38.13
2022-10-06T08:25:07.697Z,38.05
2022-10-06T08:27:35.410Z,37.81
2022-10-06T08:30:02.839Z,37.81
2022-10-06T08:32:29.446Z,38.06
2022-10-06T08:34:56.316Z,37.77
2022-10-06T08:37:26.802Z,37.92
2022-10-06T08:39:54.608Z,37.69
2022-10-06T08:42:30.335Z,37.45
2022-10-06T08:45:00.381Z,37.56
2022-10-06T08:47:34.940Z,37.63
2022-10-06T08:50:04.994Z,37.63
2022-10-06T08:53:01.142Z,37.41
2022-10-06T08:55:50.111Z,37.66
2022-10-06T08:58:35.947Z,37.15
2022-10-06T09:01:41.585Z,37.50
2022-10-06T09:04:12.637Z,37.60
2022-10-06T09:07:06.676Z,37.36
2022-10-06T09:10:01.832Z,37.28
2022-10-06T09:13:02.531Z,37.10
2022-10-06T09:15:36.148Z,37.52
2022-10-06T09:18:13.322Z,36.89
2022-10-06T09:20:51.777Z,37.23
2022-10-06T09:23:38.503Z,37.20
2022-10-06T09:26:13.196Z,36.99
2022-10-06T09:28:39.734Z,36.97
2022-10-06T09:31:39.923Z,36.99
2022-10-06T09:34:38.032Z,37.10
2022-10-06T09:37:13.040Z,37.20
2022-10-06T09:39:49.352Z,36.92
2022-10-06T09:42:23.051Z,36.84
2022-10-06T09:45:16.891Z,36.71
2022-10-06T09:47:45.677Z,37.14
2022-10-06T09:50:27.581Z,37.19
2022-10-06T09:53:00.660Z,36.73
2022-10-06T09:55:33.748Z,36.89
2022-10-06T09:58:01.473Z,36.86
2022-10-06T10:00:38.443Z,36.87
2022-10-06T10:03:07.669Z,36.82
2022-10-06T10:05:37.872Z,36.96
2022-10-06T10:08:22.334Z,36.96
2022-10-06T10:10:50.875Z,36.86
2022-10-06T10:13:22.327Z,36.48
2022-10-06T10:15:58.287Z,36.41
2022-10-06T10:18:28.778Z,36.64
2022-10-06T10:21:05.162Z,36.47
2022-10-06T10:23:43.375Z,36.43
2022-10-06T10:26:32.460Z,36.38
2022-10-06T10:29:33.093Z,36.44
2022-10-06T10:32:24.555Z,36.55
2022-10-06T10:35:06.260Z,36.74
2022-10-06T10:37:46.454Z,36.84
2022-10-06T10:40:26.636Z,36.38
2022-10-06T10:43:08.075Z,36.54
2022-10-06T10:45:39.578Z,36.65
2022-10-06T10:48:19.245Z,36.84
2022-10-06T10:50:54.103Z,36.77
2022-10-06T10:53:34.764Z,36.56
2022-10-06T10:56:05.454Z,36.66
2022-10-06T10:58:43.781Z,36.37
2022-10-06T11:01:29.414Z,36.63
2022-10-06T11:03:57.996Z,36.84
2022-10-06T11:06:33.369Z,36.61
2022-10-06T11:08:59.750Z,36.33
2022-10-06T11:11:38.519Z,36.41
2022-10-06T11:14:16.012Z,36.45
2022-10-06T11:16:58.374Z,36.50
2022-10-06T11:19:56.054Z,36.36
2022-10-06T11:22:36.950Z,36.54
2022-10-06T11:25:22.447Z,36.52
2022-10-06T11:27:58.816Z,36.32
2022-10-06T11:30:26.565Z,36.59
2022-10-06T11:33:03.659Z,36.36
2022-10-06T11:35:35.546Z,36.66
2022-10-06T11:38:15.647Z,36.63
2022-10-06T11:40:42.218Z,36.43
2022-10-06T11:43:23.553Z,36.36
2022-10-06T11:46:11.227Z,36.29
2022-10-06T11:48:37.837Z,36.37
2022-10-06T11:51:23.196Z,36.32
2022-10-06T11:53:50.087Z,36.46
2022-10-06T11:56:23.478Z,36.37
2022-10-06T11:58:55.929Z,36.40
2022-10-06T12:01:31.543Z,36.67
2022-10-06T12:04:10.291Z,36.37
2022-10-06T12:06:42.676Z,36.24
2022-10-06T12:09:28.721Z,36.09
2022-10-06T12:11:57.394Z,36.22
2022-10-06T12:17:32.473Z,35.89
2022-10-06T12:20:17.378Z,36.08
2022-10-06T12:22:43.698Z,35.75
2022-10-06T12:25:39.428Z,36.02
2022-10-06T12:28:27.472Z,35.82
2022-10-06T12:31:17.325Z,35.66
2022-10-06T12:33:45.224Z,35.99
2022-10-06T12:36:20.358Z,35.96
2022-10-06T12:39:02.432Z,35.69
2022-10-06T12:41:58.428Z,35.66
2022-10-06T12:44:34.051Z,35.83
2022-10-06T12:47:05.402Z,35.98
2022-10-06T12:49:53.729Z,35.84
2022-10-06T12:52:44.804Z,35.78
2022-10-06T12:55:51.607Z,35.71
2022-10-06T12:58:28.536Z,35.78
2022-10-06T13:01:02.462Z,35.86
2022-10-06T13:03:29.487Z,35.94
2022-10-06T13:06:03.159Z,35.87
2022-10-06T13:08:35.006Z,35.84
2022-10-06T13:11:20.947Z,35.62
2022-10-06T13:13:53.066Z,35.80
2022-10-06T13:16:23.122Z,35.89
2022-10-06T13:18:54.967Z,35.90
2022-10-06T13:21:21.514Z,35.98
2022-10-06T13:23:48.662Z,35.86
2022-10-06T13:26:30.910Z,35.74
2022-10-06T13:28:59.254Z,36.13
2022-10-06T13:31:36.610Z,35.96
2022-10-06T13:34:10.387Z,36.22
2022-10-06T13:36:40.375Z,36.62
2022-10-06T13:39:14.025Z,36.10
2022-10-06T13:42:02.422Z,36.01
2022-10-06T13:44:35.050Z,35.88
2022-10-06T13:47:07.913Z,35.92
2022-10-06T13:49:47.356Z,35.98
2022-10-06T13:52:27.598Z,36.31
2022-10-06T13:54:57.121Z,35.97
2022-10-06T13:57:40.183Z,36.03
2022-10-06T14:00:26.978Z,36.09
2022-10-06T14:03:09.384Z,35.75
2022-10-06T14:05:41.883Z,35.98
2022-10-06T14:08:10.967Z,36.57
2022-10-06T14:10:40.397Z,36.31
2022-10-06T14:13:10.069Z,36.04
2022-10-06T14:15:46.657Z,36.45
2022-10-06T14:18:26.902Z,36.31
2022-10-06T14:20:56.484Z,36.31
2022-10-06T14:23:48.116Z,36.20
2022-10-06T14:26:16.319Z,36.25
2022-10-06T14:28:48.863Z,36.14
2022-10-06T14:31:15.817Z,36.27
2022-10-06T14:33:42.458Z,36.05
2022-10-06T14:36:29.259Z,36.02
2022-10-06T14:38:57.268Z,36.35
2022-10-06T14:41:27.647Z,36.28
2022-10-06T14:43:55.402Z,36.22
2022-10-06T14:46:22.990Z,36.58
2022-10-06T14:48:49.576Z,36.56
2022-10-06T14:51:16.784Z,35.81
2022-10-06T14:53:43.284Z,36.40
2022-10-06T14:56:13.728Z,36.01
2022-10-06T14:58:43.702Z,36.04
2022-10-06T15:01:17.115Z,36.24
2022-10-06T15:03:50.877Z,36.08
2022-10-06T15:06:36.012Z,36.08
2022-10-06T15:09:02.446Z,36.40
2022-10-06T15:11:29.384Z,36.10
2022-10-06T15:13:57.223Z,36.00
2022-10-06T15:16:24.491Z,36.34
2022-10-06T15:18:51.554Z,36.33
2022-10-06T15:21:19.266Z,36.20
2022-10-06T15:23:48.003Z,36.46
2022-10-06T15:26:33.566Z,36.28
2022-10-06T15:29:05.677Z,36.22
2022-10-06T15:31:34.637Z,36.58
2022-10-06T15:34:03.487Z,36.18
2022-10-06T15:36:36.215Z,36.18
2022-10-06T15:39:12.007Z,36.40
2022-10-06T15:41:40.771Z,36.23
2022-10-06T15:44:08.519Z,36.75
2022-10-06T15:46:38.587Z,36.64
2022-10-06T15:49:06.261Z,35.96
2022-10-06T15:51:38.251Z,36.73
2022-10-06T15:54:05.440Z,37.31
2022-10-06T15:56:32.397Z,37.02
2022-10-06T15:58:59.458Z,37.19
2022-10-06T16:01:32.491Z,36.55
2022-10-06T16:04:02.220Z,36.81
2022-10-06T16:06:48.962Z,36.62
2022-10-06T16:09:18.754Z,36.78
2022-10-06T16:11:49.110Z,36.68
2022-10-06T16:14:16.359Z,37.05
2022-10-06T16:16:44.409Z,37.26
2022-10-06T16:19:11.170Z,36.67
2022-10-06T16:21:38.111Z,37.47
2022-10-06T16:24:04.660Z,36.93
2022-10-06T16:26:31.178Z,37.43
2022-10-06T16:28:57.652Z,37.43
2022-10-06T16:31:24.892Z,37.67
2022-10-06T16:33:51.426Z,38.30
2022-10-06T16:36:18.494Z,38.30
2022-10-06T16:38:45.577Z,37.63
2022-10-06T16:41:12.030Z,38.19
2022-10-06T16:43:40.812Z,37.51
2022-10-06T16:46:16.682Z,37.64
2022-10-06T16:48:45.533Z,37.75
2022-10-06T16:51:18.116Z,37.78
2022-10-06T16:53:47.183Z,37.79
2022-10-06T16:56:25.046Z,37.61
2022-10-06T16:58:56.114Z,37.99
2022-10-06T17:01:28.235Z,37.31
2022-10-06T17:04:08.998Z,37.44
2022-10-06T17:06:39.142Z,37.15
2022-10-06T17:09:11.840Z,37.74
2022-10-06T17:11:38.441Z,37.81
2022-10-06T17:14:05.317Z,37.56
2022-10-06T17:16:35.507Z,37.69
2022-10-06T17:19:03.334Z,37.47
2022-10-06T17:21:45.604Z,37.00
2022-10-06T17:24:13.221Z,36.90
2022-10-06T17:26:41.802Z,37.21
2022-10-06T17:29:13.698Z,36.67
2022-10-06T17:31:42.238Z,37.08
2022-10-06T17:34:12.386Z,36.67
2022-10-06T17:36:40.553Z,36.75
2022-10-06T17:39:08.936Z,37.00
2022-10-06T17:41:38.146Z,37.37
2022-10-06T17:44:07.773Z,37.17
2022-10-06T17:46:38.883Z,37.18
2022-10-06T17:49:07.756Z,37.45
2022-10-06T17:51:36.230Z,37.16
2022-10-06T17:54:07.367Z,37.13
2022-10-06T17:56:37.159Z,37.38
2022-10-06T17:59:07.371Z,36.96
2022-10-06T18:01:35.680Z,37.24
2022-10-06T18:04:04.466Z,37.61
2022-10-06T18:06:33.673Z,37.65
2022-10-06T18:09:02.301Z,37.55
2022-10-06T18:11:33.605Z,37.53
2022-10-06T18:14:02.193Z,37.54
2022-10-06T18:16:31.402Z,37.36
2022-10-06T18:19:02.816Z,38.07
2022-10-06T18:21:35.172Z,37.61
2022-10-06T18:24:01.672Z,37.35
2022-10-06T18:26:28.066Z,37.29
2022-10-06T18:28:54.504Z,37.46
2022-10-06T18:31:20.931Z,37.30
2022-10-06T18:36:34.939Z,37.73
2022-10-06T18:39:01.392Z,37.46
2022-10-06T18:41:28.750Z,37.79
2022-10-06T18:43:55.587Z,37.73
2022-10-06T18:46:53.940Z,37.57
2022-10-06T18:49:22.814Z,38.16
2022-10-06T18:51:58.133Z,37.65
2022-10-06T18:54:27.583Z,37.62
2022-10-06T18:56:54.878Z,37.51
2022-10-06T18:59:31.303Z,37.83
2022-10-06T19:02:00.346Z,37.87
2022-10-06T19:04:26.850Z,37.79
2022-10-06T19:06:54.838Z,37.78
2022-10-06T19:09:23.494Z,37.59
2022-10-06T19:11:55.942Z,37.56
2022-10-06T19:14:26.423Z,37.49
2022-10-06T19:16:56.579Z,37.25
2022-10-06T19:19:23.376Z,37.89
2022-10-06T19:21:57.062Z,37.88
2022-10-06T19:24:23.425Z,37.43
2022-10-06T19:26:51.523Z,37.79
2022-10-06T19:29:24.271Z,37.45
2022-10-06T19:31:52.963Z,37.66
2022-10-06T19:34:20.567Z,37.51
2022-10-06T19:36:53.660Z,37.69
2022-10-06T19:39:25.858Z,37.42
2022-10-06T19:42:11.108Z,37.56
2022-10-06T19:44:42.804Z,38.01
2022-10-06T19:47:12.587Z,37.81
2022-10-06T19:49:39.035Z,37.97
2022-10-06T19:52:08.037Z,37.82
2022-10-06T19:54:35.731Z,37.96
2022-10-06T19:57:05.494Z,37.61
2022-10-06T19:59:32.940Z,37.67
2022-10-06T20:01:59.381Z,37.75
2022-10-06T20:04:25.929Z,37.88
2022-10-06T20:06:52.611Z,37.80
2022-10-06T20:09:21.393Z,38.06
2022-10-06T20:11:50.215Z,38.23
2022-10-06T20:14:22.143Z,37.91
2022-10-06T20:16:51.009Z,38.24
2022-10-06T20:19:18.764Z,38.06
2022-10-06T20:21:47.300Z,38.06
2022-10-06T20:24:18.534Z,38.08
2022-10-06T20:26:47.030Z,38.02
2022-10-06T20:29:15.800Z,38.29
2022-10-06T20:31:45.067Z,38.31
2022-10-06T20:34:14.906Z,37.81
2022-10-06T20:36:41.927Z,38.05
2022-10-06T20:39:30.253Z,38.25
2022-10-06T20:41:56.689Z,38.14
2022-10-06T20:44:23.121Z,38.16
2022-10-06T20:46:51.288Z,38.29
2022-10-06T20:49:18.062Z,37.86
2022-10-06T20:51:49.917Z,38.19
2022-10-06T20:54:20.563Z,38.16
2022-10-06T20:56:53.479Z,38.08
2022-10-06T20:59:24.631Z,37.91
2022-10-06T21:01:51.797Z,38.00
2022-10-06T21:04:19.589Z,38.01
2022-10-06T21:06:47.222Z,37.80
2022-10-06T21:09:19.432Z,37.91
2022-10-06T21:11:47.302Z,38.11
2022-10-06T21:14:14.789Z,38.12
2022-10-06T21:16:46.585Z,37.97
2022-10-06T21:19:15.419Z,38.10
2022-10-06T21:21:43.307Z,38.09
2022-10-06T21:24:10.138Z,37.94
2022-10-06T21:26:38.624Z,38.11
2022-10-06T21:29:05.290Z,38.04
2022-10-06T21:31:32.162Z,38.05
2022-10-06T21:33:59.218Z,38.02
2022-10-06T21:36:32.049Z,38.13
2022-10-06T21:39:01.018Z,38.30
2022-10-06T21:41:30.070Z,38.33
2022-10-06T21:44:10.509Z,38.32
2022-10-06T21:46:57.361Z,38.12
2022-10-06T21:49:25.125Z,38.17
2022-10-06T21:51:54.053Z,37.91
2022-10-06T21:54:22.129Z,38.48
2022-10-06T21:56:49.556Z,38.08
2022-10-06T21:59:16.406Z,38.15
2022-10-06T22:01:45.299Z,38.17
2022-10-06T22:04:14.148Z,38.00
2022-10-06T22:06:40.939Z,38.11
2022-10-06T22:09:09.520Z,37.95
2022-10-06T22:11:38.647Z,38.41
2022-10-06T22:14:08.624Z,38.10
2022-10-06T22:16:36.576Z,37.93
2022-10-06T22:19:05.031Z,37.95
2022-10-06T22:21:36.650Z,37.98
2022-10-06T22:24:08.773Z,38.09
2022-10-06T22:26:37.519Z,37.94
2022-10-06T22:29:06.504Z,37.86
2022-10-06T22:31:38.646Z,38.12
2022-10-06T22:34:05.400Z,38.14
2022-10-06T22:36:33.647Z,38.38
2022-10-06T22:39:00.731Z,38.14
2022-10-06T22:41:27.934Z,37.92
2022-10-06T22:43:57.570Z,37.92
2022-10-06T22:46:25.952Z,38.00
2022-10-06T22:48:52.613Z,38.24
2022-10-06T22:51:19.055Z,38.34
2022-10-06T22:53:45.513Z,38.06
2022-10-06T22:56:12.289Z,37.94
2022-10-06T22:58:41.500Z,38.11
2022-10-06T23:01:12.708Z,38.02
2022-10-06T23:03:40.473Z,38.36
2022-10-06T23:06:08.539Z,38.11
2022-10-06T23:08:35.528Z,38.28
2022-10-06T23:11:17.090Z,37.90
2022-10-06T23:13:46.901Z,38.20
2022-10-06T23:16:15.876Z,37.92
2022-10-06T23:18:44.184Z,38.17
2022-10-06T23:21:21.530Z,38.29
2022-10-06T23:23:50.725Z,38.26
2022-10-06T23:26:18.924Z,38.29
2022-10-06T23:28:46.904Z,38.05
2022-10-06T23:31:13.425Z,37.99
2022-10-06T23:33:39.956Z,38.24
2022-10-06T23:36:09.943Z,37.97
2022-10-06T23:38:38.888Z,38.41
2022-10-06T23:41:06.668Z,38.09
2022-10-06T23:43:33.291Z,38.25
2022-10-06T23:46:02.552Z,37.86
2022-10-06T23:48:29.304Z,37.91
2022-10-06T23:50:56.903Z,37.80
2022-10-06T23:53:23.383Z,38.11
2022-10-06T23:55:49.850Z,38.15
2022-10-06T23:58:16.632Z,38.12
